sensor_id;sensor_type;location;lat;lon;timestamp;temperature;humidity
20831;DHT22;10576;53.556;9.868;2023-05-07T00:01:46;8.80;99.90
20831;DHT22;10576;53.556;9.868;2023-05-07T00:04:11;8.90;99.90
20831;DHT22;10576;53.556;9.868;2023-05-07T00:06:38;8.80;99.90
20831;DHT22;10576;53.556;9.868;2023-05-07T00:09:06;9.00;99.90
20831;DHT22;10576;53.556;9.868;2023-05-07T00:13:58;9.00;99.90
20831;DHT22;10576;53.556;9.868;2023-05-07T00:16:24;8.90;99.90
20831;DHT22;10576;53.556;9.868;2023-05-07T00:18:50;8.90;99.90
20831;DHT22;10576;53.556;9.868;2023-05-07T00:21:15;9.00;99.90
20831;DHT22;10576;53.556;9.868;2023-05-07T00:23:41;8.90;99.90
20831;DHT22;10576;53.556;9.868;2023-05-07T00:26:07;8.90;99.90
20831;DHT22;10576;53.556;9.868;2023-05-07T00:28:32;8.80;99.90
20831;DHT22;10576;53.556;9.868;2023-05-07T00:30:58;8.80;99.90
20831;DHT22;10576;53.556;9.868;2023-05-07T00:33:24;8.90;99.90
20831;DHT22;10576;53.556;9.868;2023-05-07T00:35:53;8.80;99.90
20831;DHT22;10576;53.556;9.868;2023-05-07T00:38:20;8.80;99.90
20831;DHT22;10576;53.556;9.868;2023-05-07T00:40:45;8.90;99.90
20831;DHT22;10576;53.556;9.868;2023-05-07T00:43:11;8.70;99.90
20831;DHT22;10576;53.556;9.868;2023-05-07T00:45:38;8.90;99.90
20831;DHT22;10576;53.556;9.868;2023-05-07T00:50:31;8.80;99.90
20831;DHT22;10576;53.556;9.868;2023-05-07T00:52:57;8.80;99.90
20831;DHT22;10576;53.556;9.868;2023-05-07T00:55:23;9.00;99.90
20831;DHT22;10576;53.556;9.868;2023-05-07T01:00:16;8.80;99.90
20831;DHT22;10576;53.556;9.868;2023-05-07T01:05:13;8.90;99.90
20831;DHT22;10576;53.556;9.868;2023-05-07T01:07:40;9.00;99.90
20831;DHT22;10576;53.556;9.868;2023-05-07T01:10:07;8.80;99.90
20831;DHT22;10576;53.556;9.868;2023-05-07T01:12:35;9.00;99.90
20831;DHT22;10576;53.556;9.868;2023-05-07T01:15:03;9.00;99.90
20831;DHT22;10576;53.556;9.868;2023-05-07T01:17:36;8.70;99.90
20831;DHT22;10576;53.556;9.868;2023-05-07T01:20:05;8.90;99.90
20831;DHT22;10576;53.556;9.868;2023-05-07T01:22:36;8.80;99.90
20831;DHT22;10576;53.556;9.868;2023-05-07T01:27:28;8.90;99.90
20831;DHT22;10576;53.556;9.868;2023-05-07T01:29:54;8.90;99.90
20831;DHT22;10576;53.556;9.868;2023-05-07T01:32:32;8.90;99.90
20831;DHT22;10576;53.556;9.868;2023-05-07T01:34:59;9.00;99.90
20831;DHT22;10576;53.556;9.868;2023-05-07T01:37:26;8.90;99.90
20831;DHT22;10576;53.556;9.868;2023-05-07T01:39:52;9.00;99.90
20831;DHT22;10576;53.556;9.868;2023-05-07T01:42:19;9.00;99.90
20831;DHT22;10576;53.556;9.868;2023-05-07T01:44:45;8.90;99.90
20831;DHT22;10576;53.556;9.868;2023-05-07T01:49:38;9.00;99.90
20831;DHT22;10576;53.556;9.868;2023-05-07T01:52:04;8.90;99.90
20831;DHT22;10576;53.556;9.868;2023-05-07T01:54:30;9.00;99.90
20831;DHT22;10576;53.556;9.868;2023-05-07T01:56:57;9.00;99.90
20831;DHT22;10576;53.556;9.868;2023-05-07T01:59:22;9.00;99.90
20831;DHT22;10576;53.556;9.868;2023-05-07T02:01:49;8.90;99.90
20831;DHT22;10576;53.556;9.868;2023-05-07T02:04:15;8.90;99.90
20831;DHT22;10576;53.556;9.868;2023-05-07T02:06:40;8.80;99.90
20831;DHT22;10576;53.556;9.868;2023-05-07T02:11:34;9.00;99.90
20831;DHT22;10576;53.556;9.868;2023-05-07T02:18:52;9.00;99.90
20831;DHT22;10576;53.556;9.868;2023-05-07T02:21:17;8.90;99.90
20831;DHT22;10576;53.556;9.868;2023-05-07T02:23:43;8.90;99.90
20831;DHT22;10576;53.556;9.868;2023-05-07T02:26:10;8.80;99.90
20831;DHT22;10576;53.556;9.868;2023-05-07T02:28:37;8.80;99.90
20831;DHT22;10576;53.556;9.868;2023-05-07T02:31:06;8.90;99.90
20831;DHT22;10576;53.556;9.868;2023-05-07T02:33:31;8.90;99.90
20831;DHT22;10576;53.556;9.868;2023-05-07T02:36:08;8.90;99.90
20831;DHT22;10576;53.556;9.868;2023-05-07T02:41:00;9.00;99.90
20831;DHT22;10576;53.556;9.868;2023-05-07T02:43:26;8.80;99.90
20831;DHT22;10576;53.556;9.868;2023-05-07T02:46:21;9.00;99.90
20831;DHT22;10576;53.556;9.868;2023-05-07T02:48:47;8.90;99.90
20831;DHT22;10576;53.556;9.868;2023-05-07T02:51:12;8.90;99.90
20831;DHT22;10576;53.556;9.868;2023-05-07T02:53:38;8.70;99.90
20831;DHT22;10576;53.556;9.868;2023-05-07T02:56:04;9.00;99.90
20831;DHT22;10576;53.556;9.868;2023-05-07T02:58:31;9.00;99.90
20831;DHT22;10576;53.556;9.868;2023-05-07T03:00:56;9.00;99.90
20831;DHT22;10576;53.556;9.868;2023-05-07T03:03:22;9.00;99.90
20831;DHT22;10576;53.556;9.868;2023-05-07T03:05:48;9.00;99.90
20831;DHT22;10576;53.556;9.868;2023-05-07T03:08:13;9.00;99.90
20831;DHT22;10576;53.556;9.868;2023-05-07T03:10:39;8.90;99.90
20831;DHT22;10576;53.556;9.868;2023-05-07T03:13:07;9.10;99.90
20831;DHT22;10576;53.556;9.868;2023-05-07T03:15:33;9.00;99.90
20831;DHT22;10576;53.556;9.868;2023-05-07T03:17:58;9.00;99.90
20831;DHT22;10576;53.556;9.868;2023-05-07T03:22:50;9.00;99.90
20831;DHT22;10576;53.556;9.868;2023-05-07T03:25:16;8.80;99.90
20831;DHT22;10576;53.556;9.868;2023-05-07T03:27:41;8.70;99.90
20831;DHT22;10576;53.556;9.868;2023-05-07T03:30:08;8.90;99.90
20831;DHT22;10576;53.556;9.868;2023-05-07T03:32:34;8.80;99.90
20831;DHT22;10576;53.556;9.868;2023-05-07T03:35:00;8.80;99.90
20831;DHT22;10576;53.556;9.868;2023-05-07T03:37:26;8.90;99.90
20831;DHT22;10576;53.556;9.868;2023-05-07T03:39:52;8.80;99.90
20831;DHT22;10576;53.556;9.868;2023-05-07T03:42:17;8.90;99.90
20831;DHT22;10576;53.556;9.868;2023-05-07T03:44:43;8.70;99.90
20831;DHT22;10576;53.556;9.868;2023-05-07T03:49:35;8.90;99.90
20831;DHT22;10576;53.556;9.868;2023-05-07T03:52:01;8.70;99.90
20831;DHT22;10576;53.556;9.868;2023-05-07T03:54:27;8.80;99.90
20831;DHT22;10576;53.556;9.868;2023-05-07T03:56:52;8.90;99.90
20831;DHT22;10576;53.556;9.868;2023-05-07T04:01:44;8.90;99.90
20831;DHT22;10576;53.556;9.868;2023-05-07T04:04:10;8.80;99.90
20831;DHT22;10576;53.556;9.868;2023-05-07T04:06:35;8.90;99.90
20831;DHT22;10576;53.556;9.868;2023-05-07T04:09:01;8.80;99.90
20831;DHT22;10576;53.556;9.868;2023-05-07T04:11:27;8.90;99.90
20831;DHT22;10576;53.556;9.868;2023-05-07T04:13:52;8.80;99.90
20831;DHT22;10576;53.556;9.868;2023-05-07T04:16:18;8.80;99.90
20831;DHT22;10576;53.556;9.868;2023-05-07T04:18:43;8.80;99.90
20831;DHT22;10576;53.556;9.868;2023-05-07T04:21:16;9.00;99.90
20831;DHT22;10576;53.556;9.868;2023-05-07T04:23:43;9.00;99.90
20831;DHT22;10576;53.556;9.868;2023-05-07T04:26:08;9.00;99.90
20831;DHT22;10576;53.556;9.868;2023-05-07T04:28:34;8.90;99.90
20831;DHT22;10576;53.556;9.868;2023-05-07T04:31:00;8.80;99.90
20831;DHT22;10576;53.556;9.868;2023-05-07T04:33:26;8.90;99.90
20831;DHT22;10576;53.556;9.868;2023-05-07T04:38:18;9.10;99.90
20831;DHT22;10576;53.556;9.868;2023-05-07T04:40:44;9.00;99.90
20831;DHT22;10576;53.556;9.868;2023-05-07T04:43:10;9.00;99.90
20831;DHT22;10576;53.556;9.868;2023-05-07T04:45:36;9.00;99.90
20831;DHT22;10576;53.556;9.868;2023-05-07T04:50:28;9.10;99.90
20831;DHT22;10576;53.556;9.868;2023-05-07T04:52:53;9.10;99.90
20831;DHT22;10576;53.556;9.868;2023-05-07T04:55:19;9.20;99.90
20831;DHT22;10576;53.556;9.868;2023-05-07T04:57:46;9.10;99.90
20831;DHT22;10576;53.556;9.868;2023-05-07T05:00:12;9.00;99.90
20831;DHT22;10576;53.556;9.868;2023-05-07T05:02:42;9.10;99.90
20831;DHT22;10576;53.556;9.868;2023-05-07T05:05:07;9.20;99.90
20831;DHT22;10576;53.556;9.868;2023-05-07T05:07:33;9.20;99.90
20831;DHT22;10576;53.556;9.868;2023-05-07T05:09:59;9.00;99.90
20831;DHT22;10576;53.556;9.868;2023-05-07T05:14:51;9.20;99.90
20831;DHT22;10576;53.556;9.868;2023-05-07T05:17:16;9.10;99.90
20831;DHT22;10576;53.556;9.868;2023-05-07T05:19:42;9.20;99.90
20831;DHT22;10576;53.556;9.868;2023-05-07T05:22:07;9.10;99.90
20831;DHT22;10576;53.556;9.868;2023-05-07T05:24:33;9.20;99.90
20831;DHT22;10576;53.556;9.868;2023-05-07T05:26:59;9.00;99.90
20831;DHT22;10576;53.556;9.868;2023-05-07T05:41:39;9.10;99.90
20831;DHT22;10576;53.556;9.868;2023-05-07T05:46:31;9.10;99.90
20831;DHT22;10576;53.556;9.868;2023-05-07T05:51:23;9.20;99.90
20831;DHT22;10576;53.556;9.868;2023-05-07T05:56:15;9.30;99.90
20831;DHT22;10576;53.556;9.868;2023-05-07T06:05:59;9.40;99.90
20831;DHT22;10576;53.556;9.868;2023-05-07T06:10:52;9.40;99.90
20831;DHT22;10576;53.556;9.868;2023-05-07T06:20:35;9.40;99.90
20831;DHT22;10576;53.556;9.868;2023-05-07T06:32:45;9.50;99.90
20831;DHT22;10576;53.556;9.868;2023-05-07T06:37:38;9.50;99.90
20831;DHT22;10576;53.556;9.868;2023-05-07T06:40:05;9.60;99.90
20831;DHT22;10576;53.556;9.868;2023-05-07T06:42:32;9.50;99.90
20831;DHT22;10576;53.556;9.868;2023-05-07T06:47:24;9.60;99.90
20831;DHT22;10576;53.556;9.868;2023-05-07T06:52:15;9.80;99.90
20831;DHT22;10576;53.556;9.868;2023-05-07T06:57:07;9.80;99.90
20831;DHT22;10576;53.556;9.868;2023-05-07T06:59:33;9.80;99.90
20831;DHT22;10576;53.556;9.868;2023-05-07T07:04:24;9.60;99.90
20831;DHT22;10576;53.556;9.868;2023-05-07T07:06:53;9.70;99.90
20831;DHT22;10576;53.556;9.868;2023-05-07T07:09:19;10.00;99.90
20831;DHT22;10576;53.556;9.868;2023-05-07T07:11:44;10.00;99.90
20831;DHT22;10576;53.556;9.868;2023-05-07T07:14:10;10.00;99.90
20831;DHT22;10576;53.556;9.868;2023-05-07T07:16:36;9.90;99.90
20831;DHT22;10576;53.556;9.868;2023-05-07T07:21:27;10.00;99.90
20831;DHT22;10576;53.556;9.868;2023-05-07T07:26:19;10.10;99.90
20831;DHT22;10576;53.556;9.868;2023-05-07T07:28:45;10.10;99.90
20831;DHT22;10576;53.556;9.868;2023-05-07T07:36:05;10.10;99.90
20831;DHT22;10576;53.556;9.868;2023-05-07T07:40:57;10.20;99.90
20831;DHT22;10576;53.556;9.868;2023-05-07T07:45:48;10.20;99.90
20831;DHT22;10576;53.556;9.868;2023-05-07T07:50:41;10.20;99.90
20831;DHT22;10576;53.556;9.868;2023-05-07T07:55:38;10.50;99.90
20831;DHT22;10576;53.556;9.868;2023-05-07T08:00:30;10.40;99.90
20831;DHT22;10576;53.556;9.868;2023-05-07T08:05:23;10.50;99.90
20831;DHT22;10576;53.556;9.868;2023-05-07T08:07:48;10.50;99.90
20831;DHT22;10576;53.556;9.868;2023-05-07T08:10:18;10.60;99.90
20831;DHT22;10576;53.556;9.868;2023-05-07T08:12:48;10.60;99.90
20831;DHT22;10576;53.556;9.868;2023-05-07T08:15:14;10.80;99.90
20831;DHT22;10576;53.556;9.868;2023-05-07T08:17:40;10.70;99.90
20831;DHT22;10576;53.556;9.868;2023-05-07T08:24:58;10.70;99.90
20831;DHT22;10576;53.556;9.868;2023-05-07T08:27:25;10.60;99.90
20831;DHT22;10576;53.556;9.868;2023-05-07T08:29:50;10.70;99.90
20831;DHT22;10576;53.556;9.868;2023-05-07T08:32:16;10.70;99.90
20831;DHT22;10576;53.556;9.868;2023-05-07T08:34:41;10.80;99.90
20831;DHT22;10576;53.556;9.868;2023-05-07T08:42:00;10.50;99.90
20831;DHT22;10576;53.556;9.868;2023-05-07T08:44:33;10.50;99.90
20831;DHT22;10576;53.556;9.868;2023-05-07T08:47:01;10.80;99.90
20831;DHT22;10576;53.556;9.868;2023-05-07T08:49:27;10.70;99.90
20831;DHT22;10576;53.556;9.868;2023-05-07T08:51:53;11.00;99.90
20831;DHT22;10576;53.556;9.868;2023-05-07T08:54:20;11.20;99.90
20831;DHT22;10576;53.556;9.868;2023-05-07T09:01:38;11.10;99.90
20831;DHT22;10576;53.556;9.868;2023-05-07T09:06:31;11.20;99.90
20831;DHT22;10576;53.556;9.868;2023-05-07T09:11:24;11.30;99.90
20831;DHT22;10576;53.556;9.868;2023-05-07T09:16:21;11.70;99.90
20831;DHT22;10576;53.556;9.868;2023-05-07T09:18:51;11.70;99.90
20831;DHT22;10576;53.556;9.868;2023-05-07T09:21:18;11.90;99.90
20831;DHT22;10576;53.556;9.868;2023-05-07T09:23:44;12.00;99.90
20831;DHT22;10576;53.556;9.868;2023-05-07T09:26:10;11.70;99.90
20831;DHT22;10576;53.556;9.868;2023-05-07T09:28:43;11.60;99.90
20831;DHT22;10576;53.556;9.868;2023-05-07T09:31:10;11.60;99.90
20831;DHT22;10576;53.556;9.868;2023-05-07T09:33:37;11.80;99.90
20831;DHT22;10576;53.556;9.868;2023-05-07T09:36:07;11.80;99.90
20831;DHT22;10576;53.556;9.868;2023-05-07T09:41:05;11.80;99.90
20831;DHT22;10576;53.556;9.868;2023-05-07T09:48:32;11.90;99.90
20831;DHT22;10576;53.556;9.868;2023-05-07T09:51:02;11.80;99.90
20831;DHT22;10576;53.556;9.868;2023-05-07T09:53:33;11.80;99.90
20831;DHT22;10576;53.556;9.868;2023-05-07T09:55:59;12.00;99.90
20831;DHT22;10576;53.556;9.868;2023-05-07T09:58:26;11.80;99.90
20831;DHT22;10576;53.556;9.868;2023-05-07T10:00:52;12.00;99.90
20831;DHT22;10576;53.556;9.868;2023-05-07T10:03:19;12.00;99.90
20831;DHT22;10576;53.556;9.868;2023-05-07T10:05:46;11.90;99.90
20831;DHT22;10576;53.556;9.868;2023-05-07T10:08:13;12.00;99.90
20831;DHT22;10576;53.556;9.868;2023-05-07T10:10:40;12.20;99.90
20831;DHT22;10576;53.556;9.868;2023-05-07T10:13:06;12.20;99.90
20831;DHT22;10576;53.556;9.868;2023-05-07T10:15:36;14.30;99.90
20831;DHT22;10576;53.556;9.868;2023-05-07T10:18:03;12.20;99.90
20831;DHT22;10576;53.556;9.868;2023-05-07T10:20:30;12.10;99.90
20831;DHT22;10576;53.556;9.868;2023-05-07T10:22:57;12.20;99.90
20831;DHT22;10576;53.556;9.868;2023-05-07T10:25:31;12.50;99.90
20831;DHT22;10576;53.556;9.868;2023-05-07T10:28:01;12.30;99.90
20831;DHT22;10576;53.556;9.868;2023-05-07T10:33:23;12.40;99.90
20831;DHT22;10576;53.556;9.868;2023-05-07T10:35:51;12.40;99.90
20831;DHT22;10576;53.556;9.868;2023-05-07T10:38:20;12.50;99.90
20831;DHT22;10576;53.556;9.868;2023-05-07T10:40:46;12.60;99.90
20831;DHT22;10576;53.556;9.868;2023-05-07T10:43:12;12.50;99.90
20831;DHT22;10576;53.556;9.868;2023-05-07T10:50:36;12.80;99.90
20831;DHT22;10576;53.556;9.868;2023-05-07T10:55:47;12.70;99.90
20831;DHT22;10576;53.556;9.868;2023-05-07T10:58:29;12.60;99.90
20831;DHT22;10576;53.556;9.868;2023-05-07T11:00:57;12.80;99.90
20831;DHT22;10576;53.556;9.868;2023-05-07T11:03:23;12.70;99.90
20831;DHT22;10576;53.556;9.868;2023-05-07T11:06:09;12.60;99.90
20831;DHT22;10576;53.556;9.868;2023-05-07T11:11:47;12.80;99.90
20831;DHT22;10576;53.556;9.868;2023-05-07T11:14:43;13.00;99.90
20831;DHT22;10576;53.556;9.868;2023-05-07T11:17:09;13.40;99.90
20831;DHT22;10576;53.556;9.868;2023-05-07T11:25:06;13.30;99.90
20831;DHT22;10576;53.556;9.868;2023-05-07T11:27:33;13.60;99.90
20831;DHT22;10576;53.556;9.868;2023-05-07T11:29:59;13.40;99.90
20831;DHT22;10576;53.556;9.868;2023-05-07T11:32:28;13.60;99.90
20831;DHT22;10576;53.556;9.868;2023-05-07T11:37:21;13.40;99.90
20831;DHT22;10576;53.556;9.868;2023-05-07T11:39:48;13.50;99.90
20831;DHT22;10576;53.556;9.868;2023-05-07T11:42:33;13.50;99.90
20831;DHT22;10576;53.556;9.868;2023-05-07T11:45:00;13.80;99.90
20831;DHT22;10576;53.556;9.868;2023-05-07T11:47:29;13.50;99.90
20831;DHT22;10576;53.556;9.868;2023-05-07T11:49:55;13.80;99.90
20831;DHT22;10576;53.556;9.868;2023-05-07T11:52:22;13.70;99.90
20831;DHT22;10576;53.556;9.868;2023-05-07T11:54:55;14.10;99.90
20831;DHT22;10576;53.556;9.868;2023-05-07T11:57:22;14.00;99.90
20831;DHT22;10576;53.556;9.868;2023-05-07T11:59:48;13.70;99.90
20831;DHT22;10576;53.556;9.868;2023-05-07T12:04:44;13.60;99.90
20831;DHT22;10576;53.556;9.868;2023-05-07T12:07:14;13.80;99.90
20831;DHT22;10576;53.556;9.868;2023-05-07T12:09:44;13.70;99.90
20831;DHT22;10576;53.556;9.868;2023-05-07T12:12:09;14.00;99.90
20831;DHT22;10576;53.556;9.868;2023-05-07T12:14:40;14.10;99.90
20831;DHT22;10576;53.556;9.868;2023-05-07T12:19:34;14.60;99.90
20831;DHT22;10576;53.556;9.868;2023-05-07T12:22:02;14.40;99.90
20831;DHT22;10576;53.556;9.868;2023-05-07T12:24:28;14.60;99.90
20831;DHT22;10576;53.556;9.868;2023-05-07T12:26:53;14.60;99.90
20831;DHT22;10576;53.556;9.868;2023-05-07T12:29:22;14.60;99.90
20831;DHT22;10576;53.556;9.868;2023-05-07T12:31:50;14.60;99.90
20831;DHT22;10576;53.556;9.868;2023-05-07T12:34:15;14.70;99.90
20831;DHT22;10576;53.556;9.868;2023-05-07T12:36:41;14.60;99.90
20831;DHT22;10576;53.556;9.868;2023-05-07T12:39:08;14.80;99.90
20831;DHT22;10576;53.556;9.868;2023-05-07T12:41:53;14.90;99.90
20831;DHT22;10576;53.556;9.868;2023-05-07T12:44:22;14.90;99.90
20831;DHT22;10576;53.556;9.868;2023-05-07T12:46:49;15.00;99.90
20831;DHT22;10576;53.556;9.868;2023-05-07T12:49:14;14.90;99.90
20831;DHT22;10576;53.556;9.868;2023-05-07T12:51:40;15.10;99.90
20831;DHT22;10576;53.556;9.868;2023-05-07T12:54:06;15.30;99.90
20831;DHT22;10576;53.556;9.868;2023-05-07T12:56:35;15.60;99.90
20831;DHT22;10576;53.556;9.868;2023-05-07T12:59:00;15.20;99.90
20831;DHT22;10576;53.556;9.868;2023-05-07T13:01:30;15.40;99.90
20831;DHT22;10576;53.556;9.868;2023-05-07T13:04:00;15.50;99.90
20831;DHT22;10576;53.556;9.868;2023-05-07T13:06:26;15.50;99.90
20831;DHT22;10576;53.556;9.868;2023-05-07T13:08:51;15.10;99.90
20831;DHT22;10576;53.556;9.868;2023-05-07T13:11:17;15.10;99.90
20831;DHT22;10576;53.556;9.868;2023-05-07T13:13:43;15.30;99.90
20831;DHT22;10576;53.556;9.868;2023-05-07T13:18:37;15.10;99.90
20831;DHT22;10576;53.556;9.868;2023-05-07T13:21:03;15.00;99.90
20831;DHT22;10576;53.556;9.868;2023-05-07T13:23:30;15.10;99.90
20831;DHT22;10576;53.556;9.868;2023-05-07T13:25:56;15.40;99.90
20831;DHT22;10576;53.556;9.868;2023-05-07T13:28:23;15.20;99.90
20831;DHT22;10576;53.556;9.868;2023-05-07T13:30:49;15.00;99.90
20831;DHT22;10576;53.556;9.868;2023-05-07T13:33:17;15.20;99.90
20831;DHT22;10576;53.556;9.868;2023-05-07T13:35:43;15.40;99.90
20831;DHT22;10576;53.556;9.868;2023-05-07T13:38:09;15.60;99.90
20831;DHT22;10576;53.556;9.868;2023-05-07T13:40:34;15.20;99.90
20831;DHT22;10576;53.556;9.868;2023-05-07T13:43:00;15.40;99.90
20831;DHT22;10576;53.556;9.868;2023-05-07T13:45:28;15.70;99.90
20831;DHT22;10576;53.556;9.868;2023-05-07T13:47:55;15.70;99.90
20831;DHT22;10576;53.556;9.868;2023-05-07T13:50:21;15.50;99.90
20831;DHT22;10576;53.556;9.868;2023-05-07T13:52:47;15.70;99.90
20831;DHT22;10576;53.556;9.868;2023-05-07T13:55:20;15.90;99.90
20831;DHT22;10576;53.556;9.868;2023-05-07T13:57:46;15.90;99.90
20831;DHT22;10576;53.556;9.868;2023-05-07T14:00:13;16.10;99.90
20831;DHT22;10576;53.556;9.868;2023-05-07T14:02:40;15.80;99.90
20831;DHT22;10576;53.556;9.868;2023-05-07T14:05:06;16.00;99.90
20831;DHT22;10576;53.556;9.868;2023-05-07T14:07:32;15.90;99.90
20831;DHT22;10576;53.556;9.868;2023-05-07T14:09:57;15.90;99.90
20831;DHT22;10576;53.556;9.868;2023-05-07T14:12:23;16.30;99.90
20831;DHT22;10576;53.556;9.868;2023-05-07T14:14:49;16.30;99.90
20831;DHT22;10576;53.556;9.868;2023-05-07T14:17:16;16.30;99.90
20831;DHT22;10576;53.556;9.868;2023-05-07T14:19:42;16.20;99.90
20831;DHT22;10576;53.556;9.868;2023-05-07T14:22:08;16.20;99.90
20831;DHT22;10576;53.556;9.868;2023-05-07T14:24:34;16.20;99.90
20831;DHT22;10576;53.556;9.868;2023-05-07T14:27:00;16.50;99.90
20831;DHT22;10576;53.556;9.868;2023-05-07T14:29:25;16.40;99.90
20831;DHT22;10576;53.556;9.868;2023-05-07T14:31:51;16.60;99.90
20831;DHT22;10576;53.556;9.868;2023-05-07T14:34:17;16.70;99.90
20831;DHT22;10576;53.556;9.868;2023-05-07T14:36:42;17.30;99.90
20831;DHT22;10576;53.556;9.868;2023-05-07T14:39:09;16.50;99.90
20831;DHT22;10576;53.556;9.868;2023-05-07T14:41:35;16.70;99.90
20831;DHT22;10576;53.556;9.868;2023-05-07T14:44:00;16.30;99.90
20831;DHT22;10576;53.556;9.868;2023-05-07T14:46:27;16.40;99.90
20831;DHT22;10576;53.556;9.868;2023-05-07T14:48:53;16.20;99.90
20831;DHT22;10576;53.556;9.868;2023-05-07T14:51:18;16.10;99.90
20831;DHT22;10576;53.556;9.868;2023-05-07T14:53:44;16.10;99.90
20831;DHT22;10576;53.556;9.868;2023-05-07T14:56:10;16.00;99.90
20831;DHT22;10576;53.556;9.868;2023-05-07T14:58:36;15.70;99.90
20831;DHT22;10576;53.556;9.868;2023-05-07T15:01:02;16.10;99.90
20831;DHT22;10576;53.556;9.868;2023-05-07T15:03:28;15.70;99.90
20831;DHT22;10576;53.556;9.868;2023-05-07T15:08:21;15.70;99.90
20831;DHT22;10576;53.556;9.868;2023-05-07T15:10:47;16.00;99.90
20831;DHT22;10576;53.556;9.868;2023-05-07T15:13:13;16.20;99.90
20831;DHT22;10576;53.556;9.868;2023-05-07T15:15:39;16.00;99.90
20831;DHT22;10576;53.556;9.868;2023-05-07T15:18:05;16.20;99.90
20831;DHT22;10576;53.556;9.868;2023-05-07T15:20:31;16.00;99.90
20831;DHT22;10576;53.556;9.868;2023-05-07T15:22:57;16.00;99.90
20831;DHT22;10576;53.556;9.868;2023-05-07T15:25:23;16.10;99.90
20831;DHT22;10576;53.556;9.868;2023-05-07T15:27:49;16.10;99.90
20831;DHT22;10576;53.556;9.868;2023-05-07T15:30:15;15.90;99.90
20831;DHT22;10576;53.556;9.868;2023-05-07T15:32:41;15.80;99.90
20831;DHT22;10576;53.556;9.868;2023-05-07T15:35:08;15.80;99.90
20831;DHT22;10576;53.556;9.868;2023-05-07T15:37:34;16.00;99.90
20831;DHT22;10576;53.556;9.868;2023-05-07T15:40:00;15.90;99.90
20831;DHT22;10576;53.556;9.868;2023-05-07T15:42:28;16.10;99.90
20831;DHT22;10576;53.556;9.868;2023-05-07T15:44:53;15.80;99.90
20831;DHT22;10576;53.556;9.868;2023-05-07T15:47:19;15.70;99.90
20831;DHT22;10576;53.556;9.868;2023-05-07T15:49:45;15.70;99.90
20831;DHT22;10576;53.556;9.868;2023-05-07T15:52:10;15.70;99.90
20831;DHT22;10576;53.556;9.868;2023-05-07T15:54:36;16.00;99.90
20831;DHT22;10576;53.556;9.868;2023-05-07T15:57:05;15.70;99.90
20831;DHT22;10576;53.556;9.868;2023-05-07T15:59:32;15.70;99.90
20831;DHT22;10576;53.556;9.868;2023-05-07T16:01:58;16.00;99.90
20831;DHT22;10576;53.556;9.868;2023-05-07T16:04:24;15.80;99.90
20831;DHT22;10576;53.556;9.868;2023-05-07T16:06:49;15.90;99.90
20831;DHT22;10576;53.556;9.868;2023-05-07T16:09:15;16.00;99.90
20831;DHT22;10576;53.556;9.868;2023-05-07T16:11:41;15.70;99.90
20831;DHT22;10576;53.556;9.868;2023-05-07T16:14:06;15.90;99.90
20831;DHT22;10576;53.556;9.868;2023-05-07T16:16:35;15.80;99.90
20831;DHT22;10576;53.556;9.868;2023-05-07T16:19:02;15.80;99.90
20831;DHT22;10576;53.556;9.868;2023-05-07T16:21:28;15.80;99.90
20831;DHT22;10576;53.556;9.868;2023-05-07T16:23:55;15.70;99.90
20831;DHT22;10576;53.556;9.868;2023-05-07T16:26:21;16.10;99.90
20831;DHT22;10576;53.556;9.868;2023-05-07T16:28:46;19.30;99.90
20831;DHT22;10576;53.556;9.868;2023-05-07T16:31:12;15.80;99.90
20831;DHT22;10576;53.556;9.868;2023-05-07T16:33:38;16.20;99.90
20831;DHT22;10576;53.556;9.868;2023-05-07T16:36:04;15.90;99.90
20831;DHT22;10576;53.556;9.868;2023-05-07T16:38:30;15.90;99.90
20831;DHT22;10576;53.556;9.868;2023-05-07T16:40:58;15.90;99.90
20831;DHT22;10576;53.556;9.868;2023-05-07T16:43:24;16.10;99.90
20831;DHT22;10576;53.556;9.868;2023-05-07T16:45:49;15.80;99.90
20831;DHT22;10576;53.556;9.868;2023-05-07T16:48:15;15.80;99.90
20831;DHT22;10576;53.556;9.868;2023-05-07T16:50:41;16.20;99.90
20831;DHT22;10576;53.556;9.868;2023-05-07T16:53:09;15.80;99.90
20831;DHT22;10576;53.556;9.868;2023-05-07T16:55:39;15.70;99.90
20831;DHT22;10576;53.556;9.868;2023-05-07T16:58:06;15.90;99.90
20831;DHT22;10576;53.556;9.868;2023-05-07T17:00:32;16.10;99.90
20831;DHT22;10576;53.556;9.868;2023-05-07T17:02:58;16.20;99.90
20831;DHT22;10576;53.556;9.868;2023-05-07T17:05:23;16.10;99.90
20831;DHT22;10576;53.556;9.868;2023-05-07T17:07:49;16.20;99.90
20831;DHT22;10576;53.556;9.868;2023-05-07T17:10:16;16.30;99.90
20831;DHT22;10576;53.556;9.868;2023-05-07T17:12:41;15.90;99.90
20831;DHT22;10576;53.556;9.868;2023-05-07T17:15:08;15.90;99.90
20831;DHT22;10576;53.556;9.868;2023-05-07T17:17:33;16.00;99.90
20831;DHT22;10576;53.556;9.868;2023-05-07T17:19:59;16.20;99.90
20831;DHT22;10576;53.556;9.868;2023-05-07T17:22:25;16.10;99.90
20831;DHT22;10576;53.556;9.868;2023-05-07T17:24:51;16.00;99.90
20831;DHT22;10576;53.556;9.868;2023-05-07T17:27:17;15.80;99.90
20831;DHT22;10576;53.556;9.868;2023-05-07T17:29:43;15.80;99.90
20831;DHT22;10576;53.556;9.868;2023-05-07T17:32:09;16.00;99.90
20831;DHT22;10576;53.556;9.868;2023-05-07T17:34:34;16.00;99.90
20831;DHT22;10576;53.556;9.868;2023-05-07T17:37:00;16.10;99.90
20831;DHT22;10576;53.556;9.868;2023-05-07T17:39:26;16.10;99.90
20831;DHT22;10576;53.556;9.868;2023-05-07T17:41:51;15.60;99.90
20831;DHT22;10576;53.556;9.868;2023-05-07T17:44:17;15.80;99.90
20831;DHT22;10576;53.556;9.868;2023-05-07T17:46:43;15.70;99.90
20831;DHT22;10576;53.556;9.868;2023-05-07T17:49:09;15.50;99.90
20831;DHT22;10576;53.556;9.868;2023-05-07T17:51:34;15.60;99.90
20831;DHT22;10576;53.556;9.868;2023-05-07T17:54:00;15.70;99.90
20831;DHT22;10576;53.556;9.868;2023-05-07T17:56:26;15.40;99.90
20831;DHT22;10576;53.556;9.868;2023-05-07T17:58:51;15.40;99.90
20831;DHT22;10576;53.556;9.868;2023-05-07T18:01:19;15.30;99.90
20831;DHT22;10576;53.556;9.868;2023-05-07T18:03:45;15.30;99.90
20831;DHT22;10576;53.556;9.868;2023-05-07T18:06:10;15.30;99.90
20831;DHT22;10576;53.556;9.868;2023-05-07T18:08:42;15.10;99.90
20831;DHT22;10576;53.556;9.868;2023-05-07T18:11:08;15.20;99.90
20831;DHT22;10576;53.556;9.868;2023-05-07T18:13:33;15.20;99.90
20831;DHT22;10576;53.556;9.868;2023-05-07T18:15:59;14.80;99.90
20831;DHT22;10576;53.556;9.868;2023-05-07T18:18:25;15.10;99.90
20831;DHT22;10576;53.556;9.868;2023-05-07T18:20:55;14.90;99.90
20831;DHT22;10576;53.556;9.868;2023-05-07T18:23:21;14.80;99.90
20831;DHT22;10576;53.556;9.868;2023-05-07T18:25:46;14.80;99.90
20831;DHT22;10576;53.556;9.868;2023-05-07T18:28:12;14.80;99.90
20831;DHT22;10576;53.556;9.868;2023-05-07T18:30:38;14.80;99.90
20831;DHT22;10576;53.556;9.868;2023-05-07T18:33:04;14.80;99.90
20831;DHT22;10576;53.556;9.868;2023-05-07T18:35:30;14.80;99.90
20831;DHT22;10576;53.556;9.868;2023-05-07T18:37:56;14.80;99.90